sensor_id;sensor_type;location;lat;lon;timestamp;P1;durP1;ratioP1;P2;durP2;ratioP2
58982;SDS011;44771;49.982;8.560;2023-03-23T00:07:04;12.50;;;11.68;;
58982;SDS011;44771;49.982;8.560;2023-03-23T00:12:05;11.90;;;11.20;;
58982;SDS011;44771;49.982;8.560;2023-03-23T00:17:06;12.65;;;11.85;;
58982;SDS011;44771;49.982;8.560;2023-03-23T00:27:56;11.38;;;10.57;;
58982;SDS011;44771;49.982;8.560;2023-03-23T00:33:01;12.27;;;11.63;;
58982;SDS011;44771;49.982;8.560;2023-03-23T00:38:03;13.60;;;12.50;;
58982;SDS011;44771;49.982;8.560;2023-03-23T00:43:04;12.20;;;11.18;;
58982;SDS011;44771;49.982;8.560;2023-03-23T00:48:05;12.18;;;11.38;;
58982;SDS011;44771;49.982;8.560;2023-03-23T00:53:07;12.93;;;11.85;;
58982;SDS011;44771;49.982;8.560;2023-03-23T00:58:07;12.23;;;11.52;;
58982;SDS011;44771;49.982;8.560;2023-03-23T01:03:09;12.77;;;11.77;;
58982;SDS011;44771;49.982;8.560;2023-03-23T01:08:11;12.00;;;11.18;;
58982;SDS011;44771;49.982;8.560;2023-03-23T01:13:13;11.55;;;10.85;;
58982;SDS011;44771;49.982;8.560;2023-03-23T01:18:14;13.23;;;12.43;;
58982;SDS011;44771;49.982;8.560;2023-03-23T01:23:16;12.23;;;11.32;;
58982;SDS011;44771;49.982;8.560;2023-03-23T01:28:17;12.48;;;11.77;;
58982;SDS011;44771;49.982;8.560;2023-03-23T01:33:17;11.88;;;11.20;;
58982;SDS011;44771;49.982;8.560;2023-03-23T01:38:19;12.50;;;11.80;;
58982;SDS011;44771;49.982;8.560;2023-03-23T01:43:20;11.70;;;11.02;;
58982;SDS011;44771;49.982;8.560;2023-03-23T01:48:22;12.05;;;11.35;;
58982;SDS011;44771;49.982;8.560;2023-03-23T01:53:28;11.85;;;11.02;;
58982;SDS011;44771;49.982;8.560;2023-03-23T01:58:32;12.55;;;11.75;;
58982;SDS011;44771;49.982;8.560;2023-03-23T02:03:34;11.57;;;10.98;;
58982;SDS011;44771;49.982;8.560;2023-03-23T02:08:38;11.50;;;10.95;;
58982;SDS011;44771;49.982;8.560;2023-03-23T02:13:40;12.30;;;11.63;;
58982;SDS011;44771;49.982;8.560;2023-03-23T02:18:50;11.48;;;10.68;;
58982;SDS011;44771;49.982;8.560;2023-03-23T02:24:02;11.57;;;10.95;;
58982;SDS011;44771;49.982;8.560;2023-03-23T02:29:23;10.95;;;10.25;;
58982;SDS011;44771;49.982;8.560;2023-03-23T02:34:44;12.05;;;11.05;;
58982;SDS011;44771;49.982;8.560;2023-03-23T02:39:49;11.73;;;11.12;;
58982;SDS011;44771;49.982;8.560;2023-03-23T02:44:52;12.07;;;11.38;;
58982;SDS011;44771;49.982;8.560;2023-03-23T02:49:55;11.85;;;10.95;;
58982;SDS011;44771;49.982;8.560;2023-03-23T02:54:58;11.23;;;10.63;;
58982;SDS011;44771;49.982;8.560;2023-03-23T03:00:00;12.63;;;11.85;;
58982;SDS011;44771;49.982;8.560;2023-03-23T03:05:03;12.50;;;11.80;;
58982;SDS011;44771;49.982;8.560;2023-03-23T03:10:16;13.32;;;12.37;;
58982;SDS011;44771;49.982;8.560;2023-03-23T03:15:23;12.45;;;11.45;;
58982;SDS011;44771;49.982;8.560;2023-03-23T03:20:31;13.18;;;12.48;;
58982;SDS011;44771;49.982;8.560;2023-03-23T03:25:35;12.98;;;12.27;;
58982;SDS011;44771;49.982;8.560;2023-03-23T03:30:37;13.20;;;12.00;;
58982;SDS011;44771;49.982;8.560;2023-03-23T03:35:40;12.18;;;11.45;;
58982;SDS011;44771;49.982;8.560;2023-03-23T03:40:43;12.82;;;11.65;;
58982;SDS011;44771;49.982;8.560;2023-03-23T03:45:43;11.68;;;10.98;;
58982;SDS011;44771;49.982;8.560;2023-03-23T03:50:45;12.30;;;11.60;;
58982;SDS011;44771;49.982;8.560;2023-03-23T03:55:46;12.20;;;11.40;;
58982;SDS011;44771;49.982;8.560;2023-03-23T04:00:46;14.13;;;13.23;;
58982;SDS011;44771;49.982;8.560;2023-03-23T04:05:48;12.45;;;11.65;;
58982;SDS011;44771;49.982;8.560;2023-03-23T04:10:49;12.10;;;11.40;;
58982;SDS011;44771;49.982;8.560;2023-03-23T04:15:50;13.18;;;12.37;;
58982;SDS011;44771;49.982;8.560;2023-03-23T04:20:52;11.63;;;10.93;;
58982;SDS011;44771;49.982;8.560;2023-03-23T04:25:53;12.98;;;12.10;;
58982;SDS011;44771;49.982;8.560;2023-03-23T04:30:54;12.10;;;11.15;;
58982;SDS011;44771;49.982;8.560;2023-03-23T04:35:59;13.15;;;12.27;;
58982;SDS011;44771;49.982;8.560;2023-03-23T04:46:01;12.75;;;11.82;;
58982;SDS011;44771;49.982;8.560;2023-03-23T04:51:03;13.13;;;12.25;;
58982;SDS011;44771;49.982;8.560;2023-03-23T04:56:05;12.48;;;11.63;;
58982;SDS011;44771;49.982;8.560;2023-03-23T05:01:06;12.40;;;11.60;;
58982;SDS011;44771;49.982;8.560;2023-03-23T05:06:08;12.00;;;11.32;;
58982;SDS011;44771;49.982;8.560;2023-03-23T05:11:08;13.93;;;12.60;;
58982;SDS011;44771;49.982;8.560;2023-03-23T05:16:09;13.27;;;12.48;;
58982;SDS011;44771;49.982;8.560;2023-03-23T05:21:11;13.38;;;12.57;;
58982;SDS011;44771;49.982;8.560;2023-03-23T05:26:12;12.02;;;10.93;;
58982;SDS011;44771;49.982;8.560;2023-03-23T05:31:12;12.60;;;11.32;;
58982;SDS011;44771;49.982;8.560;2023-03-23T05:36:14;12.80;;;12.00;;
58982;SDS011;44771;49.982;8.560;2023-03-23T05:41:15;12.73;;;11.60;;
58982;SDS011;44771;49.982;8.560;2023-03-23T05:46:16;12.80;;;12.00;;
58982;SDS011;44771;49.982;8.560;2023-03-23T05:51:18;12.25;;;11.35;;
58982;SDS011;44771;49.982;8.560;2023-03-23T05:56:18;12.63;;;11.70;;
58982;SDS011;44771;49.982;8.560;2023-03-23T06:01:19;12.13;;;11.43;;
58982;SDS011;44771;49.982;8.560;2023-03-23T06:06:21;12.68;;;11.82;;
58982;SDS011;44771;49.982;8.560;2023-03-23T06:11:22;13.48;;;12.55;;
58982;SDS011;44771;49.982;8.560;2023-03-23T06:16:23;13.27;;;12.45;;
58982;SDS011;44771;49.982;8.560;2023-03-23T06:21:25;11.55;;;10.52;;
58982;SDS011;44771;49.982;8.560;2023-03-23T06:26:27;14.27;;;13.38;;
58982;SDS011;44771;49.982;8.560;2023-03-23T06:31:30;12.68;;;11.88;;
58982;SDS011;44771;49.982;8.560;2023-03-23T06:36:34;13.20;;;12.07;;
58982;SDS011;44771;49.982;8.560;2023-03-23T06:41:35;13.48;;;12.45;;
58982;SDS011;44771;49.982;8.560;2023-03-23T06:46:36;11.68;;;10.98;;
58982;SDS011;44771;49.982;8.560;2023-03-23T06:51:38;13.60;;;12.60;;
58982;SDS011;44771;49.982;8.560;2023-03-23T06:56:39;13.00;;;12.05;;
58982;SDS011;44771;49.982;8.560;2023-03-23T07:01:39;12.85;;;12.05;;
58982;SDS011;44771;49.982;8.560;2023-03-23T07:06:41;12.70;;;11.90;;
58982;SDS011;44771;49.982;8.560;2023-03-23T07:11:42;12.23;;;11.43;;
58982;SDS011;44771;49.982;8.560;2023-03-23T07:16:43;11.02;;;10.32;;
58982;SDS011;44771;49.982;8.560;2023-03-23T07:21:45;13.23;;;12.13;;
58982;SDS011;44771;49.982;8.560;2023-03-23T07:26:45;11.85;;;11.15;;
58982;SDS011;44771;49.982;8.560;2023-03-23T07:31:46;11.82;;;11.10;;
58982;SDS011;44771;49.982;8.560;2023-03-23T07:36:48;13.15;;;12.25;;
58982;SDS011;44771;49.982;8.560;2023-03-23T07:41:49;11.82;;;11.12;;
58982;SDS011;44771;49.982;8.560;2023-03-23T07:46:50;13.25;;;12.07;;
58982;SDS011;44771;49.982;8.560;2023-03-23T07:51:52;12.10;;;11.23;;
58982;SDS011;44771;49.982;8.560;2023-03-23T07:56:52;11.38;;;10.68;;
58982;SDS011;44771;49.982;8.560;2023-03-23T08:01:53;13.88;;;12.88;;
58982;SDS011;44771;49.982;8.560;2023-03-23T08:06:55;12.82;;;11.90;;
58982;SDS011;44771;49.982;8.560;2023-03-23T08:11:56;11.52;;;10.73;;
58982;SDS011;44771;49.982;8.560;2023-03-23T08:16:57;12.45;;;11.57;;
58982;SDS011;44771;49.982;8.560;2023-03-23T08:21:59;12.35;;;11.43;;
58982;SDS011;44771;49.982;8.560;2023-03-23T08:27:00;13.07;;;11.88;;
58982;SDS011;44771;49.982;8.560;2023-03-23T08:32:00;12.27;;;11.45;;
58982;SDS011;44771;49.982;8.560;2023-03-23T08:37:03;12.57;;;11.77;;
58982;SDS011;44771;49.982;8.560;2023-03-23T08:42:04;13.50;;;12.40;;
58982;SDS011;44771;49.982;8.560;2023-03-23T08:47:04;12.10;;;11.38;;
58982;SDS011;44771;49.982;8.560;2023-03-23T08:52:06;11.70;;;11.00;;
58982;SDS011;44771;49.982;8.560;2023-03-23T08:57:07;13.55;;;12.65;;
58982;SDS011;44771;49.982;8.560;2023-03-23T09:02:09;12.23;;;11.45;;
58982;SDS011;44771;49.982;8.560;2023-03-23T09:07:12;13.68;;;12.68;;
58982;SDS011;44771;49.982;8.560;2023-03-23T09:12:13;11.75;;;11.05;;
58982;SDS011;44771;49.982;8.560;2023-03-23T09:17:13;12.20;;;11.40;;
58982;SDS011;44771;49.982;8.560;2023-03-23T09:22:15;11.32;;;10.68;;
58982;SDS011;44771;49.982;8.560;2023-03-23T09:27:16;12.48;;;11.68;;
58982;SDS011;44771;49.982;8.560;2023-03-23T09:32:17;12.10;;;11.23;;
58982;SDS011;44771;49.982;8.560;2023-03-23T09:37:19;12.75;;;11.85;;
58982;SDS011;44771;49.982;8.560;2023-03-23T09:42:28;12.27;;;11.32;;
58982;SDS011;44771;49.982;8.560;2023-03-23T09:47:38;12.10;;;11.30;;
58982;SDS011;44771;49.982;8.560;2023-03-23T09:52:46;12.43;;;11.70;;
58982;SDS011;44771;49.982;8.560;2023-03-23T09:57:52;11.90;;;11.20;;
58982;SDS011;44771;49.982;8.560;2023-03-23T10:02:59;11.25;;;10.65;;
58982;SDS011;44771;49.982;8.560;2023-03-23T10:08:08;11.05;;;10.20;;
58982;SDS011;44771;49.982;8.560;2023-03-23T10:13:14;12.68;;;11.90;;
58982;SDS011;44771;49.982;8.560;2023-03-23T10:18:20;10.88;;;10.10;;
58982;SDS011;44771;49.982;8.560;2023-03-23T10:23:44;12.18;;;11.48;;
58982;SDS011;44771;49.982;8.560;2023-03-23T10:28:54;12.00;;;11.30;;
58982;SDS011;44771;49.982;8.560;2023-03-23T10:33:57;12.40;;;11.60;;
58982;SDS011;44771;49.982;8.560;2023-03-23T10:39:06;12.13;;;11.35;;
58982;SDS011;44771;49.982;8.560;2023-03-23T10:44:15;11.88;;;11.07;;
58982;SDS011;44771;49.982;8.560;2023-03-23T10:49:19;13.20;;;12.10;;
58982;SDS011;44771;49.982;8.560;2023-03-23T10:54:26;12.48;;;11.68;;
58982;SDS011;44771;49.982;8.560;2023-03-23T10:59:31;13.27;;;12.37;;
58982;SDS011;44771;49.982;8.560;2023-03-23T11:04:32;11.07;;;10.48;;
58982;SDS011;44771;49.982;8.560;2023-03-23T11:09:35;10.57;;;9.98;;
58982;SDS011;44771;49.982;8.560;2023-03-23T11:14:37;11.90;;;11.07;;
58982;SDS011;44771;49.982;8.560;2023-03-23T11:19:38;12.57;;;11.88;;
58982;SDS011;44771;49.982;8.560;2023-03-23T11:24:41;11.43;;;10.63;;
58982;SDS011;44771;49.982;8.560;2023-03-23T11:29:47;12.30;;;11.38;;
58982;SDS011;44771;49.982;8.560;2023-03-23T11:34:53;12.73;;;11.77;;
58982;SDS011;44771;49.982;8.560;2023-03-23T11:39:57;11.98;;;11.27;;
58982;SDS011;44771;49.982;8.560;2023-03-23T11:45:07;13.75;;;12.60;;
58982;SDS011;44771;49.982;8.560;2023-03-23T11:50:15;12.73;;;11.60;;
58982;SDS011;44771;49.982;8.560;2023-03-23T11:55:22;11.45;;;10.85;;
58982;SDS011;44771;49.982;8.560;2023-03-23T12:00:25;12.27;;;11.48;;
58982;SDS011;44771;49.982;8.560;2023-03-23T12:05:29;11.48;;;10.68;;
58982;SDS011;44771;49.982;8.560;2023-03-23T12:10:38;11.77;;;11.18;;
58982;SDS011;44771;49.982;8.560;2023-03-23T12:15:43;10.38;;;9.77;;
58982;SDS011;44771;49.982;8.560;2023-03-23T12:20:53;11.05;;;10.45;;
58982;SDS011;44771;49.982;8.560;2023-03-23T12:26:08;12.55;;;11.85;;
58982;SDS011;44771;49.982;8.560;2023-03-23T12:31:15;10.98;;;10.32;;
58982;SDS011;44771;49.982;8.560;2023-03-23T12:36:29;11.75;;;11.15;;
58982;SDS011;44771;49.982;8.560;2023-03-23T12:41:42;12.35;;;11.65;;
58982;SDS011;44771;49.982;8.560;2023-03-23T12:47:03;11.88;;;11.27;;
58982;SDS011;44771;49.982;8.560;2023-03-23T12:52:18;11.55;;;10.95;;
58982;SDS011;44771;49.982;8.560;2023-03-23T12:57:24;11.18;;;10.25;;
58982;SDS011;44771;49.982;8.560;2023-03-23T13:02:28;10.73;;;10.13;;
58982;SDS011;44771;49.982;8.560;2023-03-23T13:07:33;10.93;;;10.23;;
58982;SDS011;44771;49.982;8.560;2023-03-23T13:12:38;11.77;;;11.18;;
58982;SDS011;44771;49.982;8.560;2023-03-23T13:17:42;11.65;;;10.85;;
58982;SDS011;44771;49.982;8.560;2023-03-23T13:22:50;11.23;;;10.63;;
58982;SDS011;44771;49.982;8.560;2023-03-23T13:27:57;11.45;;;10.85;;
58982;SDS011;44771;49.982;8.560;2023-03-23T13:33:03;11.23;;;10.63;;
58982;SDS011;44771;49.982;8.560;2023-03-23T13:38:11;12.10;;;11.30;;
58982;SDS011;44771;49.982;8.560;2023-03-23T13:43:27;11.85;;;11.00;;
58982;SDS011;44771;49.982;8.560;2023-03-23T13:48:29;12.60;;;11.98;;
58982;SDS011;44771;49.982;8.560;2023-03-23T13:53:43;11.82;;;11.15;;
58982;SDS011;44771;49.982;8.560;2023-03-23T13:58:47;10.23;;;9.52;;
58982;SDS011;44771;49.982;8.560;2023-03-23T14:03:49;12.87;;;12.07;;
58982;SDS011;44771;49.982;8.560;2023-03-23T14:08:54;11.20;;;10.65;;
58982;SDS011;44771;49.982;8.560;2023-03-23T14:14:03;10.88;;;10.32;;
58982;SDS011;44771;49.982;8.560;2023-03-23T14:19:13;10.93;;;10.32;;
58982;SDS011;44771;49.982;8.560;2023-03-23T14:24:17;11.38;;;10.77;;
58982;SDS011;44771;49.982;8.560;2023-03-23T14:29:22;10.50;;;9.95;;
58982;SDS011;44771;49.982;8.560;2023-03-23T14:34:24;11.25;;;10.65;;
58982;SDS011;44771;49.982;8.560;2023-03-23T14:39:27;11.50;;;10.95;;
58982;SDS011;44771;49.982;8.560;2023-03-23T14:44:32;12.75;;;11.95;;
58982;SDS011;44771;49.982;8.560;2023-03-23T14:54:36;13.10;;;12.05;;
58982;SDS011;44771;49.982;8.560;2023-03-23T14:59:40;12.00;;;11.40;;
58982;SDS011;44771;49.982;8.560;2023-03-23T15:04:42;12.05;;;11.35;;
58982;SDS011;44771;49.982;8.560;2023-03-23T15:09:45;12.02;;;11.25;;
58982;SDS011;44771;49.982;8.560;2023-03-23T15:14:49;12.35;;;11.55;;
58982;SDS011;44771;49.982;8.560;2023-03-23T15:19:52;12.00;;;11.20;;
58982;SDS011;44771;49.982;8.560;2023-03-23T15:25:01;12.27;;;11.57;;
58982;SDS011;44771;49.982;8.560;2023-03-23T15:30:13;12.88;;;12.18;;
58982;SDS011;44771;49.982;8.560;2023-03-23T15:35:26;13.02;;;12.05;;
58982;SDS011;44771;49.982;8.560;2023-03-23T15:40:32;11.82;;;11.02;;
58982;SDS011;44771;49.982;8.560;2023-03-23T15:45:36;12.32;;;11.65;;
58982;SDS011;44771;49.982;8.560;2023-03-23T15:50:38;10.93;;;10.25;;
58982;SDS011;44771;49.982;8.560;2023-03-23T15:55:40;11.85;;;11.15;;
58982;SDS011;44771;49.982;8.560;2023-03-23T16:00:42;11.85;;;11.05;;
58982;SDS011;44771;49.982;8.560;2023-03-23T16:05:45;12.93;;;11.98;;
58982;SDS011;44771;49.982;8.560;2023-03-23T16:10:47;12.65;;;11.65;;
58982;SDS011;44771;49.982;8.560;2023-03-23T16:15:50;12.70;;;11.90;;
58982;SDS011;44771;49.982;8.560;2023-03-23T16:20:51;11.82;;;11.00;;
58982;SDS011;44771;49.982;8.560;2023-03-23T16:25:53;12.18;;;11.40;;
58982;SDS011;44771;49.982;8.560;2023-03-23T16:31:09;12.37;;;11.63;;
58982;SDS011;44771;49.982;8.560;2023-03-23T16:36:53;13.48;;;12.32;;
58982;SDS011;44771;49.982;8.560;2023-03-23T16:41:55;11.12;;;10.43;;
58982;SDS011;44771;49.982;8.560;2023-03-23T16:46:58;11.95;;;11.25;;
58982;SDS011;44771;49.982;8.560;2023-03-23T16:52:00;11.95;;;11.15;;
58982;SDS011;44771;49.982;8.560;2023-03-23T16:57:02;13.00;;;12.20;;
58982;SDS011;44771;49.982;8.560;2023-03-23T17:02:25;12.35;;;11.50;;
58982;SDS011;44771;49.982;8.560;2023-03-23T17:07:33;12.52;;;11.73;;
58982;SDS011;44771;49.982;8.560;2023-03-23T17:12:35;12.37;;;11.57;;
58982;SDS011;44771;49.982;8.560;2023-03-23T17:17:38;11.68;;;10.88;;
58982;SDS011;44771;49.982;8.560;2023-03-23T17:22:40;11.75;;;11.05;;
58982;SDS011;44771;49.982;8.560;2023-03-23T17:27:42;13.00;;;11.98;;
58982;SDS011;44771;49.982;8.560;2023-03-23T17:32:45;11.85;;;11.07;;
58982;SDS011;44771;49.982;8.560;2023-03-23T17:37:47;13.10;;;12.10;;
58982;SDS011;44771;49.982;8.560;2023-03-23T17:42:49;13.32;;;12.50;;
58982;SDS011;44771;49.982;8.560;2023-03-23T17:47:52;12.05;;;11.15;;
58982;SDS011;44771;49.982;8.560;2023-03-23T17:52:54;11.43;;;10.63;;
58982;SDS011;44771;49.982;8.560;2023-03-23T17:57:55;12.77;;;11.80;;
58982;SDS011;44771;49.982;8.560;2023-03-23T18:02:59;11.48;;;10.77;;
58982;SDS011;44771;49.982;8.560;2023-03-23T18:08:00;12.00;;;11.20;;
58982;SDS011;44771;49.982;8.560;2023-03-23T18:13:02;12.50;;;11.68;;
58982;SDS011;44771;49.982;8.560;2023-03-23T18:18:06;14.05;;;13.13;;
58982;SDS011;44771;49.982;8.560;2023-03-23T18:23:08;12.37;;;11.60;;
58982;SDS011;44771;49.982;8.560;2023-03-23T18:28:10;12.55;;;11.75;;
58982;SDS011;44771;49.982;8.560;2023-03-23T18:33:13;13.93;;;12.93;;
58982;SDS011;44771;49.982;8.560;2023-03-23T18:38:16;12.23;;;11.43;;
58982;SDS011;44771;49.982;8.560;2023-03-23T18:43:18;12.52;;;11.48;;
58982;SDS011;44771;49.982;8.560;2023-03-23T18:48:22;11.85;;;11.15;;
58982;SDS011;44771;49.982;8.560;2023-03-23T18:53:24;11.77;;;11.02;;
58982;SDS011;44771;49.982;8.560;2023-03-23T18:58:27;11.55;;;10.77;;
58982;SDS011;44771;49.982;8.560;2023-03-23T19:03:30;12.32;;;11.52;;
58982;SDS011;44771;49.982;8.560;2023-03-23T19:08:32;12.23;;;11.32;;
58982;SDS011;44771;49.982;8.560;2023-03-23T19:13:33;12.85;;;11.82;;
58982;SDS011;44771;49.982;8.560;2023-03-23T19:18:38;12.57;;;11.77;;
58982;SDS011;44771;49.982;8.560;2023-03-23T19:23:40;12.57;;;11.68;;
58982;SDS011;44771;49.982;8.560;2023-03-23T19:28:42;10.95;;;10.15;;
58982;SDS011;44771;49.982;8.560;2023-03-23T19:34:05;11.45;;;10.60;;
58982;SDS011;44771;49.982;8.560;2023-03-23T19:39:07;10.85;;;10.15;;
58982;SDS011;44771;49.982;8.560;2023-03-23T19:44:09;12.05;;;11.35;;
58982;SDS011;44771;49.982;8.560;2023-03-23T19:49:12;10.60;;;9.80;;
58982;SDS011;44771;49.982;8.560;2023-03-23T19:54:14;11.15;;;10.45;;
58982;SDS011;44771;49.982;8.560;2023-03-23T19:59:16;12.02;;;11.15;;
58982;SDS011;44771;49.982;8.560;2023-03-23T20:04:19;11.23;;;10.63;;
58982;SDS011;44771;49.982;8.560;2023-03-23T20:09:21;12.77;;;11.65;;
58982;SDS011;44771;49.982;8.560;2023-03-23T20:14:25;12.27;;;11.48;;
58982;SDS011;44771;49.982;8.560;2023-03-23T20:19:28;12.40;;;11.60;;
58982;SDS011;44771;49.982;8.560;2023-03-23T20:24:30;12.75;;;11.88;;
58982;SDS011;44771;49.982;8.560;2023-03-23T20:29:31;13.10;;;12.25;;
58982;SDS011;44771;49.982;8.560;2023-03-23T20:34:35;13.13;;;12.10;;
58982;SDS011;44771;49.982;8.560;2023-03-23T20:39:36;13.98;;;12.98;;
58982;SDS011;44771;49.982;8.560;2023-03-23T20:44:38;14.00;;;13.00;;
58982;SDS011;44771;49.982;8.560;2023-03-23T20:49:42;13.68;;;12.68;;
58982;SDS011;44771;49.982;8.560;2023-03-23T20:54:53;15.23;;;13.95;;
58982;SDS011;44771;49.982;8.560;2023-03-23T20:59:56;14.85;;;13.60;;
58982;SDS011;44771;49.982;8.560;2023-03-23T21:04:59;14.32;;;13.23;;
58982;SDS011;44771;49.982;8.560;2023-03-23T21:10:01;14.10;;;12.88;;
58982;SDS011;44771;49.982;8.560;2023-03-23T21:15:03;14.52;;;13.23;;
58982;SDS011;44771;49.982;8.560;2023-03-23T21:20:07;15.20;;;14.10;;
58982;SDS011;44771;49.982;8.560;2023-03-23T21:25:09;15.65;;;14.15;;
58982;SDS011;44771;49.982;8.560;2023-03-23T21:30:11;14.70;;;13.40;;
58982;SDS011;44771;49.982;8.560;2023-03-23T21:35:14;14.80;;;13.38;;
58982;SDS011;44771;49.982;8.560;2023-03-23T21:40:16;14.55;;;13.48;;
58982;SDS011;44771;49.982;8.560;2023-03-23T21:45:18;14.70;;;13.57;;
58982;SDS011;44771;49.982;8.560;2023-03-23T21:50:21;13.23;;;12.07;;
58982;SDS011;44771;49.982;8.560;2023-03-23T21:55:23;15.05;;;13.43;;
58982;SDS011;44771;49.982;8.560;2023-03-23T22:00:25;16.27;;;14.38;;
58982;SDS011;44771;49.982;8.560;2023-03-23T22:05:28;13.95;;;12.95;;
58982;SDS011;44771;49.982;8.560;2023-03-23T22:10:30;16.27;;;14.85;;
58982;SDS011;44771;49.982;8.560;2023-03-23T22:15:31;14.98;;;13.88;;
58982;SDS011;44771;49.982;8.560;2023-03-23T22:20:34;15.82;;;14.65;;
58982;SDS011;44771;49.982;8.560;2023-03-23T22:25:36;14.60;;;13.50;;
58982;SDS011;44771;49.982;8.560;2023-03-23T22:30:38;15.35;;;14.15;;
58982;SDS011;44771;49.982;8.560;2023-03-23T22:35:41;15.20;;;14.00;;
58982;SDS011;44771;49.982;8.560;2023-03-23T22:40:44;14.95;;;13.55;;
58982;SDS011;44771;49.982;8.560;2023-03-23T22:45:55;15.65;;;13.45;;
58982;SDS011;44771;49.982;8.560;2023-03-23T22:50:58;14.98;;;13.43;;
58982;SDS011;44771;49.982;8.560;2023-03-23T22:56:00;15.00;;;13.90;;
58982;SDS011;44771;49.982;8.560;2023-03-23T23:01:03;14.68;;;13.40;;
58982;SDS011;44771;49.982;8.560;2023-03-23T23:06:09;15.07;;;14.07;;
58982;SDS011;44771;49.982;8.560;2023-03-23T23:11:13;14.35;;;13.07;;
58982;SDS011;44771;49.982;8.560;2023-03-23T23:16:16;15.77;;;14.48;;
58982;SDS011;44771;49.982;8.560;2023-03-23T23:21:20;15.80;;;14.52;;
58982;SDS011;44771;49.982;8.560;2023-03-23T23:26:23;16.02;;;14.65;;
58982;SDS011;44771;49.982;8.560;2023-03-23T23:31:26;16.48;;;15.02;;
58982;SDS011;44771;49.982;8.560;2023-03-23T23:36:31;17.10;;;15.70;;
58982;SDS011;44771;49.982;8.560;2023-03-23T23:41:33;15.00;;;13.60;;
58982;SDS011;44771;49.982;8.560;2023-03-23T23:46:36;15.65;;;14.20;;
58982;SDS011;44771;49.982;8.560;2023-03-23T23:51:39;15.63;;;14.23;;
58982;SDS011;44771;49.982;8.560;2023-03-23T23:56:41;16.10;;;14.77;;
